Clark Hill, Kentucky
Current Conditions -  °F | °C
As of 7:10 AM on Sunday 25 Jan 2015 (Local Time) from KSYM Reporting Station
Few Clouds Few Clouds  
Wind Chill: 34°   Ceiling: Unl
Heat Index: 34°   Visibility: 7mi
Dew Point: 30°   Wind: 0mph
Humidity: 87%   Direction: NA
Pressure: 29.79"   Gusts: NA
Location:  38.3543°N, 83.1837°W
Report Text: KSYM 251210Z AUTO 00000KT 7SM FEW120 01/M01 A2979 RMK AO2
Loading
Personal Weather Stations






























Interactive Weather Map New forecast layout! Learn more

10-Day Weather Forecast

Advertisements
Track Severe Weather on mobile